createdAt,value
2023-03-24T00:02:07.262Z,56.35
2023-03-24T00:04:36.510Z,56.49
2023-03-24T00:07:04.921Z,56.24
2023-03-24T00:09:33.684Z,56.32
2023-03-24T00:12:02.119Z,56.35
2023-03-24T00:14:31.305Z,56.26
2023-03-24T00:17:01.530Z,56.54
2023-03-24T00:19:29.982Z,56.07
2023-03-24T00:22:00.628Z,56.19
2023-03-24T00:24:29.029Z,56.16
2023-03-24T00:26:57.691Z,56.39
2023-03-24T00:29:26.930Z,56.39
2023-03-24T00:31:55.522Z,56.39
2023-03-24T00:34:25.618Z,56.53
2023-03-24T00:36:54.103Z,56.59
2023-03-24T00:39:22.790Z,56.49
2023-03-24T00:41:51.211Z,56.44
2023-03-24T00:44:19.992Z,56.43
2023-03-24T00:46:56.419Z,56.60
2023-03-24T00:49:42.826Z,56.55
2023-03-24T00:52:11.771Z,56.30
2023-03-24T00:54:41.162Z,56.58
2023-03-24T00:57:12.877Z,56.69
2023-03-24T00:59:48.562Z,56.91
2023-03-24T01:02:19.212Z,56.45
2023-03-24T01:04:49.421Z,56.61
2023-03-24T01:07:18.682Z,56.77
2023-03-24T01:09:51.797Z,56.70
2023-03-24T01:12:21.881Z,56.87
2023-03-24T01:14:50.875Z,56.32
2023-03-24T01:17:19.891Z,56.45
2023-03-24T01:19:49.768Z,56.16
2023-03-24T01:22:18.212Z,56.39
2023-03-24T01:24:46.619Z,56.42
2023-03-24T01:27:15.503Z,56.56
2023-03-24T01:29:44.177Z,56.64
2023-03-24T01:32:13.525Z,56.57
2023-03-24T01:34:42.215Z,56.38
2023-03-24T01:37:12.068Z,56.16
2023-03-24T01:39:40.554Z,56.28
2023-03-24T01:42:17.535Z,56.72
2023-03-24T01:44:48.281Z,56.87
2023-03-24T01:47:17.280Z,56.68
2023-03-24T01:49:51.406Z,56.79
2023-03-24T01:52:25.149Z,56.57
2023-03-24T01:54:59.012Z,57.42
2023-03-24T01:57:31.748Z,56.63
2023-03-24T02:00:04.996Z,57.28
2023-03-24T02:03:14.879Z,57.06
2023-03-24T02:05:53.245Z,57.98
2023-03-24T02:08:29.515Z,57.87
2023-03-24T02:10:59.069Z,58.25
2023-03-24T02:13:35.066Z,58.17
2023-03-24T02:16:14.417Z,58.67
2023-03-24T02:18:52.737Z,59.25
2023-03-24T02:21:55.979Z,58.95
2023-03-24T02:25:06.087Z,58.95
2023-03-24T02:28:03.847Z,58.96
2023-03-24T02:31:07.162Z,59.49
2023-03-24T02:34:08.692Z,59.13
2023-03-24T02:37:09.898Z,58.93
2023-03-24T02:40:08.106Z,59.68
2023-03-24T02:42:46.516Z,60.22
2023-03-24T02:45:25.063Z,60.09
2023-03-24T02:48:09.975Z,59.91
2023-03-24T02:50:46.369Z,59.73
2023-03-24T02:53:19.436Z,59.71
2023-03-24T02:56:14.222Z,59.90
2023-03-24T02:58:48.453Z,59.56
2023-03-24T03:01:31.214Z,59.84
2023-03-24T03:04:12.830Z,59.88
2023-03-24T03:06:44.479Z,59.97
2023-03-24T03:09:16.318Z,60.42
2023-03-24T03:11:50.753Z,59.74
2023-03-24T03:14:23.617Z,59.86
2023-03-24T03:16:59.981Z,59.43
2023-03-24T03:19:33.587Z,59.61
2023-03-24T03:22:06.143Z,59.64
2023-03-24T03:24:40.340Z,59.71
2023-03-24T03:27:14.956Z,59.45
2023-03-24T03:29:48.865Z,59.72
2023-03-24T03:32:24.826Z,59.61
2023-03-24T03:34:58.180Z,59.77
2023-03-24T03:37:34.606Z,59.79
2023-03-24T03:40:07.840Z,59.58
2023-03-24T03:42:38.484Z,59.44
2023-03-24T03:45:10.089Z,59.54
2023-03-24T03:47:39.965Z,59.48
2023-03-24T03:50:10.333Z,59.31
2023-03-24T03:52:41.717Z,59.40
2023-03-24T03:55:11.332Z,59.23
2023-03-24T03:57:42.345Z,59.25
2023-03-24T04:00:24.813Z,59.28
2023-03-24T04:03:37.809Z,59.10
2023-03-24T04:06:14.950Z,59.19
2023-03-24T04:08:50.015Z,59.07
2023-03-24T04:11:50.608Z,59.22
2023-03-24T04:14:55.655Z,59.30
2023-03-24T04:18:27.217Z,59.25
2023-03-24T04:21:34.345Z,59.14
2023-03-24T04:24:18.967Z,59.12
2023-03-24T04:26:55.777Z,59.17
2023-03-24T04:29:34.430Z,59.15
2023-03-24T04:32:11.339Z,59.29
2023-03-24T04:34:46.313Z,59.12
2023-03-24T04:37:38.089Z,59.08
2023-03-24T04:40:15.276Z,59.23
2023-03-24T04:42:47.360Z,59.12
2023-03-24T04:45:17.083Z,59.32
2023-03-24T04:48:10.274Z,59.32
2023-03-24T04:50:55.333Z,59.41
2023-03-24T04:53:24.602Z,59.35
2023-03-24T04:56:11.534Z,59.37
2023-03-24T04:59:03.518Z,59.32
2023-03-24T05:01:32.011Z,59.51
2023-03-24T05:04:23.971Z,59.44
2023-03-24T05:06:52.887Z,59.51
2023-03-24T05:09:26.368Z,59.41
2023-03-24T05:11:54.659Z,59.39
2023-03-24T05:14:25.113Z,59.39
2023-03-24T05:16:54.258Z,59.50
2023-03-24T05:19:25.531Z,59.41
2023-03-24T05:21:54.070Z,59.47
2023-03-24T05:24:24.658Z,59.38
2023-03-24T05:26:53.045Z,59.49
2023-03-24T05:29:22.149Z,59.48
2023-03-24T05:31:50.519Z,59.44
2023-03-24T05:34:22.694Z,59.40
2023-03-24T05:37:16.965Z,59.40
2023-03-24T05:39:49.731Z,59.47
2023-03-24T05:42:49.847Z,59.48
2023-03-24T05:45:18.846Z,59.38
2023-03-24T05:47:47.647Z,59.53
2023-03-24T05:50:19.272Z,59.42
2023-03-24T05:52:48.960Z,59.37
2023-03-24T05:55:46.728Z,59.50
2023-03-24T05:58:35.426Z,59.41
2023-03-24T06:01:08.444Z,59.48
2023-03-24T06:03:40.537Z,59.57
2023-03-24T06:06:16.941Z,59.54
2023-03-24T06:08:47.039Z,59.41
2023-03-24T06:11:16.803Z,59.57
2023-03-24T06:14:03.031Z,59.56
2023-03-24T06:16:39.680Z,59.64
2023-03-24T06:19:09.616Z,59.46
2023-03-24T06:22:03.256Z,59.69
2023-03-24T06:24:47.011Z,59.33
2023-03-24T06:27:15.961Z,59.19
2023-03-24T06:29:44.296Z,59.37
2023-03-24T06:32:14.423Z,59.25
2023-03-24T06:34:43.913Z,59.41
2023-03-24T06:37:33.365Z,59.38
2023-03-24T06:40:09.447Z,59.42
2023-03-24T06:42:39.430Z,59.28
2023-03-24T06:45:09.269Z,59.61
2023-03-24T06:47:38.340Z,59.59
2023-03-24T06:50:08.558Z,59.96
2023-03-24T06:52:37.355Z,60.13
2023-03-24T06:55:08.334Z,59.96
2023-03-24T06:57:36.724Z,60.03
2023-03-24T07:00:23.477Z,59.71
2023-03-24T07:03:02.600Z,59.92
2023-03-24T07:05:31.362Z,59.93
2023-03-24T07:10:39.704Z,60.12
2023-03-24T07:13:08.628Z,60.18
2023-03-24T07:15:39.419Z,60.69
2023-03-24T07:18:08.286Z,60.47
2023-03-24T07:20:43.558Z,61.05
2023-03-24T07:23:15.333Z,60.36
2023-03-24T07:25:47.648Z,60.56
2023-03-24T07:28:25.880Z,61.73
2023-03-24T07:30:55.656Z,61.00
2023-03-24T07:33:25.276Z,60.48
2023-03-24T07:35:57.365Z,60.86
2023-03-24T07:38:27.330Z,60.96
2023-03-24T07:41:02.504Z,60.93
2023-03-24T07:43:33.644Z,61.57
2023-03-24T07:46:02.117Z,60.83
2023-03-24T07:48:30.905Z,60.50
2023-03-24T07:50:59.538Z,60.08
2023-03-24T07:53:50.046Z,60.80
2023-03-24T07:56:29.309Z,60.67
2023-03-24T07:59:00.087Z,60.76
2023-03-24T08:02:03.900Z,60.99
2023-03-24T08:04:53.681Z,61.66
2023-03-24T08:07:54.371Z,61.84
2023-03-24T08:10:24.654Z,62.43
2023-03-24T08:12:54.531Z,61.91
2023-03-24T08:15:23.185Z,63.44
2023-03-24T08:17:51.927Z,63.45
2023-03-24T08:20:21.385Z,62.79
2023-03-24T08:22:54.653Z,63.55
2023-03-24T08:25:25.786Z,63.50
2023-03-24T08:27:56.044Z,63.68
2023-03-24T08:30:26.170Z,63.15
2023-03-24T08:32:56.318Z,63.18
2023-03-24T08:35:26.512Z,64.40
2023-03-24T08:37:55.064Z,63.78
2023-03-24T08:40:24.750Z,63.35
2023-03-24T08:42:57.184Z,63.20
2023-03-24T08:45:28.356Z,64.00
2023-03-24T08:47:58.537Z,62.69
2023-03-24T08:50:29.283Z,63.36
2023-03-24T08:52:58.727Z,64.10
2023-03-24T08:55:27.278Z,63.93
2023-03-24T08:57:57.384Z,65.11
2023-03-24T09:00:25.995Z,64.63
2023-03-24T09:02:55.948Z,65.11
2023-03-24T09:05:40.998Z,63.69
2023-03-24T09:08:13.476Z,64.61
2023-03-24T09:10:43.288Z,64.11
2023-03-24T09:13:12.975Z,63.31
2023-03-24T09:15:42.174Z,63.15
2023-03-24T09:18:10.500Z,62.17
2023-03-24T09:20:38.784Z,62.41
2023-03-24T09:23:07.021Z,62.50
2023-03-24T09:25:35.564Z,62.90
2023-03-24T09:28:04.006Z,63.47
2023-03-24T09:30:35.128Z,64.59
2023-03-24T09:33:03.910Z,63.00
2023-03-24T09:35:32.214Z,64.50
2023-03-24T09:38:00.702Z,63.48
2023-03-24T09:40:30.801Z,63.14
2023-03-24T09:43:04.194Z,63.86
2023-03-24T09:45:37.769Z,65.01
2023-03-24T09:48:10.047Z,65.73
2023-03-24T09:50:43.210Z,65.16
2023-03-24T09:53:22.129Z,64.34
2023-03-24T09:55:50.917Z,64.95
2023-03-24T09:58:20.136Z,64.03
2023-03-24T10:00:50.087Z,63.62
2023-03-24T10:03:22.856Z,63.58
2023-03-24T10:05:57.039Z,62.69
2023-03-24T10:08:31.874Z,62.07
2023-03-24T10:11:04.715Z,62.07
2023-03-24T10:13:44.963Z,61.39
2023-03-24T10:16:23.244Z,60.84
2023-03-24T10:18:59.410Z,60.70
2023-03-24T10:21:29.330Z,58.45
2023-03-24T10:24:06.867Z,58.78
2023-03-24T10:26:43.624Z,58.29
2023-03-24T10:29:23.096Z,57.64
2023-03-24T10:31:58.770Z,58.10
2023-03-24T10:34:30.825Z,58.44
2023-03-24T10:37:00.605Z,57.80
2023-03-24T10:39:42.046Z,57.69
2023-03-24T10:42:21.492Z,57.17
2023-03-24T10:44:52.294Z,57.48
2023-03-24T10:47:27.257Z,56.81
2023-03-24T10:49:58.404Z,56.79
2023-03-24T10:52:26.970Z,57.00
2023-03-24T10:54:57.491Z,57.26
2023-03-24T10:57:27.284Z,57.21
2023-03-24T10:59:59.703Z,57.71
2023-03-24T11:02:32.313Z,57.58
2023-03-24T11:05:03.699Z,57.73
2023-03-24T11:07:35.406Z,58.05
2023-03-24T11:10:08.325Z,58.44
2023-03-24T11:12:39.171Z,58.39
2023-03-24T11:15:29.035Z,57.57
2023-03-24T11:18:01.521Z,56.58
2023-03-24T11:20:33.654Z,56.74
2023-03-24T11:23:04.890Z,55.41
2023-03-24T11:25:36.940Z,55.93
2023-03-24T11:28:09.781Z,55.53
2023-03-24T11:30:48.017Z,55.44
2023-03-24T11:33:34.928Z,55.71
2023-03-24T11:36:10.268Z,55.29
2023-03-24T11:38:38.992Z,55.13
2023-03-24T11:41:07.433Z,54.32
2023-03-24T11:43:35.880Z,56.09
2023-03-24T11:46:09.866Z,56.95
2023-03-24T11:48:51.017Z,57.37
2023-03-24T11:51:27.154Z,58.06
2023-03-24T11:54:00.262Z,59.85
2023-03-24T11:56:33.750Z,60.09
2023-03-24T11:59:09.316Z,60.12
2023-03-24T12:01:41.148Z,60.02
2023-03-24T12:04:29.024Z,59.13
2023-03-24T12:07:08.750Z,57.51
2023-03-24T12:09:45.075Z,57.33
2023-03-24T12:12:24.905Z,56.70
2023-03-24T12:15:17.273Z,57.42
2023-03-24T12:17:57.062Z,57.26
2023-03-24T12:20:32.223Z,56.10
2023-03-24T12:23:06.381Z,56.60
2023-03-24T12:25:43.705Z,59.35
2023-03-24T12:28:26.672Z,57.93
2023-03-24T12:31:08.879Z,57.10
2023-03-24T12:33:50.528Z,56.77
2023-03-24T12:36:44.104Z,57.06
2023-03-24T12:39:14.166Z,57.29
2023-03-24T12:42:11.371Z,56.82
2023-03-24T12:45:04.763Z,56.70
2023-03-24T12:48:05.259Z,56.79
2023-03-24T12:50:45.908Z,57.05
2023-03-24T12:53:27.918Z,56.97
2023-03-24T12:56:00.421Z,56.75
2023-03-24T12:58:43.040Z,56.78
2023-03-24T13:01:20.519Z,57.22
2023-03-24T13:03:52.313Z,56.69
2023-03-24T13:06:27.141Z,56.74
2023-03-24T13:09:08.162Z,55.29
2023-03-24T13:11:44.618Z,55.23
2023-03-24T13:14:17.971Z,55.28
2023-03-24T13:16:49.078Z,56.34
2023-03-24T13:19:22.012Z,55.38
2023-03-24T13:21:53.370Z,59.55
2023-03-24T13:24:23.831Z,60.41
2023-03-24T13:26:58.752Z,60.39
2023-03-24T13:29:50.922Z,63.18
2023-03-24T13:32:30.297Z,61.05
2023-03-24T13:35:06.261Z,62.24
2023-03-24T13:37:37.655Z,63.70
2023-03-24T13:40:12.301Z,62.46
2023-03-24T13:42:48.085Z,62.90
2023-03-24T13:45:26.960Z,59.94
2023-03-24T13:48:17.743Z,56.64
2023-03-24T13:50:55.600Z,58.25
2023-03-24T13:53:33.567Z,62.66
2023-03-24T13:56:05.933Z,61.15
2023-03-24T13:58:49.419Z,61.83
2023-03-24T14:01:32.774Z,61.04
2023-03-24T14:04:44.058Z,58.54
2023-03-24T14:07:32.502Z,56.19
2023-03-24T14:10:02.907Z,55.98
2023-03-24T14:12:34.586Z,55.74
2023-03-24T14:15:18.590Z,55.69
2023-03-24T14:17:49.028Z,56.00
2023-03-24T14:20:28.345Z,55.65
2023-03-24T14:22:56.918Z,56.07
2023-03-24T14:25:30.718Z,55.61
2023-03-24T14:28:23.496Z,54.87
2023-03-24T14:31:21.359Z,54.52
2023-03-24T14:34:03.105Z,55.72
2023-03-24T14:36:35.225Z,55.60
2023-03-24T14:39:26.273Z,55.49
2023-03-24T14:41:55.897Z,55.20
2023-03-24T14:44:55.369Z,62.46
2023-03-24T14:47:27.765Z,61.72
2023-03-24T14:49:59.554Z,61.77
2023-03-24T14:52:33.879Z,63.85
2023-03-24T14:55:05.829Z,62.91
2023-03-24T14:57:40.692Z,62.62
2023-03-24T15:00:17.337Z,67.60
2023-03-24T15:02:48.082Z,66.79
2023-03-24T15:05:31.030Z,63.26
2023-03-24T15:08:05.645Z,65.99
2023-03-24T15:10:39.052Z,65.15
2023-03-24T15:13:07.970Z,63.71
2023-03-24T15:15:37.649Z,65.37
2023-03-24T15:18:06.118Z,63.95
2023-03-24T15:20:46.936Z,63.17
2023-03-24T15:23:19.216Z,66.09
2023-03-24T15:25:48.077Z,68.00
2023-03-24T15:28:21.518Z,67.22
2023-03-24T15:30:51.905Z,64.80
2023-03-24T15:33:21.810Z,66.22
2023-03-24T15:35:56.847Z,64.88
2023-03-24T15:38:30.552Z,65.37
2023-03-24T15:41:02.199Z,67.01
2023-03-24T15:43:31.122Z,104.70
2023-03-24T15:46:11.910Z,112.29
2023-03-24T15:48:41.428Z,105.91
2023-03-24T15:51:12.407Z,104.99
2023-03-24T15:53:44.217Z,103.83
2023-03-24T15:56:21.856Z,106.70
2023-03-24T15:58:54.259Z,105.95
2023-03-24T16:01:31.461Z,103.56
2023-03-24T16:04:02.500Z,106.40
2023-03-24T16:06:35.451Z,101.37
2023-03-24T16:09:08.582Z,107.83
2023-03-24T16:11:37.193Z,108.55
2023-03-24T16:14:20.400Z,105.69
2023-03-24T16:16:50.260Z,104.34
2023-03-24T16:19:18.666Z,108.09
2023-03-24T16:21:47.002Z,103.90
2023-03-24T16:24:15.301Z,105.89
2023-03-24T16:26:43.598Z,104.04
2023-03-24T16:29:17.952Z,102.95
2023-03-24T16:31:49.118Z,105.00
2023-03-24T16:34:20.352Z,105.69
2023-03-24T16:36:49.550Z,106.24
2023-03-24T16:39:20.203Z,101.61
2023-03-24T16:41:48.915Z,102.68
2023-03-24T16:44:20.152Z,104.65
2023-03-24T16:46:49.997Z,101.21
2023-03-24T16:49:20.808Z,95.86
2023-03-24T16:51:49.555Z,94.38
2023-03-24T16:54:17.841Z,91.52
2023-03-24T16:56:46.341Z,92.25
2023-03-24T16:59:15.498Z,83.42
2023-03-24T17:01:46.022Z,70.52
2023-03-24T17:04:16.599Z,56.61
2023-03-24T17:06:49.167Z,56.36
2023-03-24T17:09:18.213Z,54.31
2023-03-24T17:11:50.343Z,52.92
2023-03-24T17:14:18.917Z,53.91
2023-03-24T17:16:49.695Z,52.82
2023-03-24T17:19:19.567Z,53.18
2023-03-24T17:21:53.429Z,53.23
2023-03-24T17:24:24.205Z,54.10
2023-03-24T17:26:52.724Z,54.32
2023-03-24T17:29:22.811Z,54.68
2023-03-24T17:31:51.235Z,54.88
2023-03-24T17:34:22.194Z,56.39
2023-03-24T17:36:52.470Z,56.67
2023-03-24T17:39:22.172Z,57.06
2023-03-24T17:41:50.543Z,58.41
2023-03-24T17:44:19.039Z,56.97
2023-03-24T17:46:47.389Z,56.94
2023-03-24T17:49:15.827Z,58.51
2023-03-24T17:51:44.141Z,57.59
2023-03-24T17:54:13.878Z,57.53
2023-03-24T17:56:42.214Z,57.83
2023-03-24T17:59:10.587Z,57.65
2023-03-24T18:01:41.525Z,58.31
2023-03-24T18:04:09.902Z,58.25
2023-03-24T18:06:38.732Z,58.09
2023-03-24T18:09:08.737Z,58.44
2023-03-24T18:11:38.569Z,58.45
2023-03-24T18:14:09.188Z,58.61
2023-03-24T18:16:39.319Z,58.05
2023-03-24T18:19:07.871Z,59.15
2023-03-24T18:21:36.160Z,59.22
2023-03-24T18:24:06.492Z,58.28
2023-03-24T18:26:34.988Z,59.14
2023-03-24T18:29:05.767Z,58.42
2023-03-24T18:31:34.489Z,58.33
2023-03-24T18:34:04.047Z,59.06
2023-03-24T18:36:32.568Z,58.74
2023-03-24T18:39:02.953Z,58.84
2023-03-24T18:41:31.972Z,59.16
2023-03-24T18:44:00.865Z,59.28
2023-03-24T18:46:31.406Z,58.77
2023-03-24T18:48:59.965Z,58.92
2023-03-24T18:51:29.142Z,59.41
2023-03-24T18:53:57.399Z,59.45
2023-03-24T18:56:26.216Z,58.92
2023-03-24T18:58:54.600Z,58.43
2023-03-24T19:01:26.284Z,58.03
2023-03-24T19:03:56.320Z,57.99
2023-03-24T19:06:31.379Z,58.29
2023-03-24T19:09:00.515Z,58.31
2023-03-24T19:11:28.838Z,57.88
2023-03-24T19:13:57.461Z,58.53
2023-03-24T19:16:26.057Z,58.20
2023-03-24T19:18:57.845Z,58.67
2023-03-24T19:21:27.489Z,58.98
2023-03-24T19:23:56.955Z,58.74
2023-03-24T19:26:25.976Z,58.34
2023-03-24T19:28:54.463Z,58.94
2023-03-24T19:31:23.054Z,59.22
2023-03-24T19:33:53.669Z,59.08
2023-03-24T19:36:25.423Z,58.73
2023-03-24T19:38:53.833Z,58.74
2023-03-24T19:41:26.248Z,58.90
2023-03-24T19:43:54.606Z,58.90
2023-03-24T19:46:23.133Z,59.05
2023-03-24T19:48:51.561Z,58.65
2023-03-24T19:51:21.240Z,57.80
2023-03-24T19:53:51.087Z,57.96
2023-03-24T19:56:20.762Z,57.36
2023-03-24T19:58:49.136Z,57.29
2023-03-24T20:01:17.445Z,57.47
2023-03-24T20:03:46.452Z,57.16
2023-03-24T20:06:15.854Z,57.29
2023-03-24T20:08:44.870Z,57.16
2023-03-24T20:11:14.564Z,57.32
2023-03-24T20:13:42.864Z,57.00
2023-03-24T20:16:11.165Z,57.25
2023-03-24T20:18:40.439Z,57.22
2023-03-24T20:21:09.803Z,57.80
2023-03-24T20:23:38.121Z,59.40
2023-03-24T20:26:06.627Z,58.58
2023-03-24T20:28:36.677Z,57.19
2023-03-24T20:31:06.339Z,57.25
2023-03-24T20:33:35.312Z,57.35
2023-03-24T20:36:04.515Z,57.42
2023-03-24T20:38:33.250Z,57.52
2023-03-24T20:41:03.345Z,57.85
2023-03-24T20:43:35.651Z,57.67
2023-03-24T20:46:06.549Z,58.22
2023-03-24T20:48:35.283Z,58.51
2023-03-24T20:51:04.154Z,58.99
2023-03-24T20:53:34.920Z,58.83
2023-03-24T20:56:06.639Z,58.35
2023-03-24T20:58:35.435Z,58.61
2023-03-24T21:01:08.187Z,59.46
2023-03-24T21:03:37.418Z,59.29
2023-03-24T21:06:06.123Z,58.82
2023-03-24T21:08:34.409Z,59.32
2023-03-24T21:11:02.696Z,59.54
2023-03-24T21:13:37.289Z,59.51
2023-03-24T21:16:09.079Z,59.71
2023-03-24T21:18:38.752Z,59.80
2023-03-24T21:21:07.402Z,59.73
2023-03-24T21:23:39.449Z,59.67
2023-03-24T21:26:11.352Z,59.52
2023-03-24T21:28:41.112Z,59.65
2023-03-24T21:31:12.890Z,60.59
2023-03-24T21:33:43.525Z,59.64
2023-03-24T21:36:13.090Z,60.22
2023-03-24T21:38:41.683Z,59.61
2023-03-24T21:41:10.431Z,59.91
2023-03-24T21:43:40.479Z,59.67
2023-03-24T21:46:20.588Z,59.66
2023-03-24T21:48:51.864Z,59.88
2023-03-24T21:51:21.745Z,60.00
2023-03-24T21:53:50.038Z,59.89
2023-03-24T21:56:20.241Z,59.81
2023-03-24T21:58:48.856Z,60.68
2023-03-24T22:01:18.531Z,60.17
2023-03-24T22:03:46.850Z,59.81
2023-03-24T22:06:15.471Z,60.16
2023-03-24T22:08:44.639Z,60.22
2023-03-24T22:11:15.323Z,60.22
2023-03-24T22:13:43.652Z,60.33
2023-03-24T22:16:11.946Z,59.77
2023-03-24T22:18:41.840Z,60.80
2023-03-24T22:21:12.499Z,60.35
2023-03-24T22:23:42.479Z,60.58
2023-03-24T22:26:13.117Z,60.49
2023-03-24T22:28:42.315Z,60.26
2023-03-24T22:31:12.430Z,60.32
2023-03-24T22:33:42.521Z,59.91
2023-03-24T22:36:11.618Z,60.55
2023-03-24T22:38:40.148Z,60.57
2023-03-24T22:41:10.550Z,60.76
2023-03-24T22:43:41.076Z,60.60
2023-03-24T22:46:10.007Z,60.70
2023-03-24T22:48:39.539Z,60.62
2023-03-24T22:51:09.972Z,61.05
2023-03-24T22:53:38.257Z,61.00
2023-03-24T22:56:09.117Z,60.34
2023-03-24T22:58:37.531Z,60.70
2023-03-24T23:01:06.247Z,60.70
2023-03-24T23:03:35.029Z,60.80
2023-03-24T23:06:03.958Z,60.48
2023-03-24T23:08:34.798Z,61.37
2023-03-24T23:11:03.591Z,61.03
2023-03-24T23:13:35.496Z,61.56
2023-03-24T23:16:04.263Z,61.96
2023-03-24T23:18:32.713Z,61.65
2023-03-24T23:21:06.946Z,61.99
2023-03-24T23:23:37.532Z,62.20
2023-03-24T23:26:07.082Z,61.50
2023-03-24T23:28:36.477Z,63.21
2023-03-24T23:31:13.503Z,62.90
2023-03-24T23:33:42.051Z,62.44
2023-03-24T23:36:17.109Z,63.72
2023-03-24T23:38:50.617Z,62.54
2023-03-24T23:41:19.563Z,63.18
2023-03-24T23:43:50.122Z,62.66
2023-03-24T23:46:18.636Z,62.76
2023-03-24T23:48:47.048Z,62.46
2023-03-24T23:51:15.331Z,61.36
2023-03-24T23:53:43.926Z,61.08
2023-03-24T23:56:13.814Z,60.85
2023-03-24T23:58:43.528Z,60.18
